This is the latest recevied weather packets stored in our database for station/object F4JSG-10. If no packets are shown the sender has not sent any weather packets the latest 1 day(s).
| Time | Temp. | Humidity | Pressure | Rain* | Wind** | Luminosity | Snow |
|---|---|---|---|---|---|---|---|
| 1788622129 | 33.89° C | 29% | 996.7 hPa | - | - | - | - |
| 1788621229 | 32.22° C | 33% | 996.7 hPa | - | - | - | - |
| 1788620329 | 31.67° C | 34% | 996.8 hPa | - | - | - | - |
| 1788619429 | 30.56° C | 35% | 996.7 hPa | - | - | - | - |
| 1788618529 | 33.33° C | 31% | 996.7 hPa | - | - | - | - |
| 1788617616 | 33.89° C | 29% | 996.7 hPa | - | - | - | - |
| 1788616716 | 33.89° C | 30% | 996.7 hPa | - | - | - | - |
| 1788615816 | 33.33° C | 30% | 996.8 hPa | - | - | - | - |
| 1788614916 | 33.33° C | 30% | 996.9 hPa | - | - | - | - |
| 1788614016 | 33.33° C | 31% | 997 hPa | - | - | - | - |
| 1788613116 | 32.78° C | 32% | 997 hPa | - | - | - | - |
| 1788612215 | 32.22° C | 33% | 997 hPa | - | - | - | - |
| 1788611315 | 31.11° C | 35% | 996.9 hPa | - | - | - | - |
| 1788610415 | 30° C | 39% | 997.1 hPa | - | - | - | - |
| 1788609515 | 30° C | 38% | 997.1 hPa | - | - | - | - |
| 1788608615 | 30° C | 36% | 996.9 hPa | - | - | - | - |
| 1788607715 | 29.44° C | 40% | 996.9 hPa | - | - | - | - |
| 1788606815 | 30° C | 37% | 997 hPa | - | - | - | - |
| 1788605914 | 29.44° C | 40% | 997.1 hPa | - | - | - | - |
| 1788605014 | 28.89° C | 42% | 997.2 hPa | - | - | - | - |
| 1788604114 | 28.89° C | 46% | 997.1 hPa | - | - | - | - |
| 1788603214 | 29.44° C | 45% | 997 hPa | - | - | - | - |
| 1788602314 | 30.56° C | 42% | 997 hPa | - | - | - | - |
| 1788601414 | 31.67° C | 37% | 996.9 hPa | - | - | - | - |
| 1788600514 | 29.44° C | 45% | 997 hPa | - | - | - | - |
* Rain since midnight (hover to see other rain measurements)
** Current wind speed in m/s (hover to see current wind gust speed)